Metar z połowy godziny Komunikat METAR ze strony awiacja.imgw.pl Metar G30 EPPW METAR EPPW 241130Z 27008KT CAVOK 11/M03 Q1023 RMK 107 037 1/1=